Airfield :
LOGIN :

Register | Disclaimer

   EN    FR    IT 

 










Legend :    VFR   Marginal VFR   IFR   Intensive IFR   Very Intensive IFR
Visi :
Ceiling :
>= 8 km
>= 3000ft
5 to 8 km
1000 to 3000 ft
1500m to 5 km
500 to 1000 ft
800 to 1500m
200 to 500 ft
< 800m
< 200 ft
Symbols :   Thunderstorms  Fog  Heavy snow  Heavy precipitations  Wind > 20 kt
SIGMETs :     Misc.  Thunderstorms  Icing  Turbulence  Mountain Waves  Volcanic Ashes






- Airport Elevation : 171 ft
- IATA code : EGC


LFBE - Bergerac

CURRENT METAR :
  • 021930Z AUTO 28007KT CAVOK 18/12 Q1020 NOSIG

EXPIRED METARs :
  • 021900Z AUTO 28008KT CAVOK 20/12 Q1020 NOSIG
  • 021830Z AUTO 29010KT 260V320 CAVOK 21/12 Q1020 NOSIG
  • 021800Z AUTO 28009KT 9999 FEW039 BKN054 OVC084 21/13 Q1019 NOSIG
  • 021730Z AUTO 29007KT 260V330 9999 SCT037 BKN046 BKN060 21/13 Q1019 NOSIG
  • 021700Z AUTO 29007KT 9999 FEW048 BKN060 BKN070 21/13 Q1019 NOSIG

TAF TAF LFBE
Valid from the 02 at 12:00 until the 03 at 12:00 UTC


021100Z 0212/0312 29008KT 9999 BKN040
TEMPO 0215/0217 31015G25KT -SHRA BKN030TCU



MET'MAP, your aeronautical weather chart ! - Copyright ORBIFLY December 2007 - Disclaimer

ORBIFLY MET'MAP TEAM :

Programming & Development : Alexandra Zaïnal
Concept & original design : Baudouin d'Aumeries
Assistance for programming : Marc-Olivier Méhu
Technical & hardware support : Manuel Goepfert

Contact : metmap@orbifly.com




SOURCES & CREDITS :

   NOAA